sensor_id;sensor_type;location;lat;lon;timestamp;P1;durP1;ratioP1;P2;durP2;ratioP2
71763;SDS011;59602;52.142;5.408;2022-07-23T00:00:18;1.92;;;0.50;;
71763;SDS011;59602;52.142;5.408;2022-07-23T00:02:46;4.63;;;0.70;;
71763;SDS011;59602;52.142;5.408;2022-07-23T00:05:12;2.55;;;0.70;;
71763;SDS011;59602;52.142;5.408;2022-07-23T00:07:39;4.32;;;0.60;;
71763;SDS011;59602;52.142;5.408;2022-07-23T00:10:07;2.78;;;0.85;;
71763;SDS011;59602;52.142;5.408;2022-07-23T00:12:34;2.30;;;0.80;;
71763;SDS011;59602;52.142;5.408;2022-07-23T00:15:02;3.23;;;0.67;;
71763;SDS011;59602;52.142;5.408;2022-07-23T00:17:30;2.15;;;0.70;;
71763;SDS011;59602;52.142;5.408;2022-07-23T00:19:57;2.67;;;0.75;;
71763;SDS011;59602;52.142;5.408;2022-07-23T00:22:23;2.13;;;0.68;;
71763;SDS011;59602;52.142;5.408;2022-07-23T00:24:50;2.30;;;0.70;;
71763;SDS011;59602;52.142;5.408;2022-07-23T00:27:36;2.03;;;0.73;;
71763;SDS011;59602;52.142;5.408;2022-07-23T00:30:03;3.25;;;1.00;;
71763;SDS011;59602;52.142;5.408;2022-07-23T00:32:30;3.33;;;0.80;;
71763;SDS011;59602;52.142;5.408;2022-07-23T00:35:19;1.88;;;0.90;;
71763;SDS011;59602;52.142;5.408;2022-07-23T00:37:48;1.80;;;0.70;;
71763;SDS011;59602;52.142;5.408;2022-07-23T00:40:15;3.33;;;1.03;;
71763;SDS011;59602;52.142;5.408;2022-07-23T00:42:41;2.60;;;1.10;;
71763;SDS011;59602;52.142;5.408;2022-07-23T00:45:08;2.92;;;1.15;;
71763;SDS011;59602;52.142;5.408;2022-07-23T00:47:35;2.42;;;0.90;;
71763;SDS011;59602;52.142;5.408;2022-07-23T00:50:03;2.88;;;1.08;;
71763;SDS011;59602;52.142;5.408;2022-07-23T00:52:32;3.70;;;0.97;;
71763;SDS011;59602;52.142;5.408;2022-07-23T00:54:59;1.80;;;0.82;;
71763;SDS011;59602;52.142;5.408;2022-07-23T00:57:26;5.18;;;1.17;;
71763;SDS011;59602;52.142;5.408;2022-07-23T00:59:54;2.40;;;0.88;;
71763;SDS011;59602;52.142;5.408;2022-07-23T01:02:21;1.80;;;0.90;;
71763;SDS011;59602;52.142;5.408;2022-07-23T01:04:48;2.67;;;1.13;;
71763;SDS011;59602;52.142;5.408;2022-07-23T01:07:14;2.83;;;0.90;;
71763;SDS011;59602;52.142;5.408;2022-07-23T01:09:42;2.42;;;0.70;;
71763;SDS011;59602;52.142;5.408;2022-07-23T01:12:09;1.95;;;0.80;;
71763;SDS011;59602;52.142;5.408;2022-07-23T01:14:35;3.63;;;1.00;;
71763;SDS011;59602;52.142;5.408;2022-07-23T01:17:02;3.23;;;0.87;;
71763;SDS011;59602;52.142;5.408;2022-07-23T01:19:31;3.50;;;0.93;;
71763;SDS011;59602;52.142;5.408;2022-07-23T01:21:57;2.70;;;1.05;;
71763;SDS011;59602;52.142;5.408;2022-07-23T01:24:27;2.65;;;0.88;;
71763;SDS011;59602;52.142;5.408;2022-07-23T01:26:54;2.83;;;0.93;;
71763;SDS011;59602;52.142;5.408;2022-07-23T01:29:20;2.60;;;0.87;;
71763;SDS011;59602;52.142;5.408;2022-07-23T01:31:48;3.90;;;1.00;;
71763;SDS011;59602;52.142;5.408;2022-07-23T01:34:15;1.95;;;0.90;;
71763;SDS011;59602;52.142;5.408;2022-07-23T01:36:41;2.95;;;0.90;;
71763;SDS011;59602;52.142;5.408;2022-07-23T01:39:08;2.25;;;1.08;;
71763;SDS011;59602;52.142;5.408;2022-07-23T01:41:36;2.13;;;0.97;;
71763;SDS011;59602;52.142;5.408;2022-07-23T01:44:05;3.38;;;1.08;;
71763;SDS011;59602;52.142;5.408;2022-07-23T01:46:31;2.25;;;1.10;;
71763;SDS011;59602;52.142;5.408;2022-07-23T01:48:58;2.55;;;1.33;;
71763;SDS011;59602;52.142;5.408;2022-07-23T01:51:25;3.83;;;1.58;;
71763;SDS011;59602;52.142;5.408;2022-07-23T01:53:52;4.97;;;1.20;;
71763;SDS011;59602;52.142;5.408;2022-07-23T01:56:18;3.30;;;1.13;;
71763;SDS011;59602;52.142;5.408;2022-07-23T01:58:47;3.30;;;1.27;;
71763;SDS011;59602;52.142;5.408;2022-07-23T02:01:15;3.15;;;1.38;;
71763;SDS011;59602;52.142;5.408;2022-07-23T02:03:41;3.33;;;1.10;;
71763;SDS011;59602;52.142;5.408;2022-07-23T02:06:08;3.17;;;1.50;;
71763;SDS011;59602;52.142;5.408;2022-07-23T02:08:34;4.00;;;1.58;;
71763;SDS011;59602;52.142;5.408;2022-07-23T02:11:01;2.97;;;1.45;;
71763;SDS011;59602;52.142;5.408;2022-07-23T02:13:28;3.80;;;1.48;;
71763;SDS011;59602;52.142;5.408;2022-07-23T02:15:59;3.85;;;1.50;;
71763;SDS011;59602;52.142;5.408;2022-07-23T02:18:27;2.67;;;1.00;;
71763;SDS011;59602;52.142;5.408;2022-07-23T02:20:53;4.95;;;1.80;;
71763;SDS011;59602;52.142;5.408;2022-07-23T02:23:20;3.15;;;1.02;;
71763;SDS011;59602;52.142;5.408;2022-07-23T02:25:46;3.47;;;1.33;;
71763;SDS011;59602;52.142;5.408;2022-07-23T02:28:14;4.05;;;1.45;;
71763;SDS011;59602;52.142;5.408;2022-07-23T02:30:41;2.67;;;1.40;;
71763;SDS011;59602;52.142;5.408;2022-07-23T02:33:09;5.43;;;1.85;;
71763;SDS011;59602;52.142;5.408;2022-07-23T02:35:35;2.50;;;1.50;;
71763;SDS011;59602;52.142;5.408;2022-07-23T02:38:02;5.07;;;1.88;;
71763;SDS011;59602;52.142;5.408;2022-07-23T02:40:28;3.05;;;1.48;;
71763;SDS011;59602;52.142;5.408;2022-07-23T02:42:55;3.53;;;1.43;;
71763;SDS011;59602;52.142;5.408;2022-07-23T02:45:21;3.75;;;1.80;;
71763;SDS011;59602;52.142;5.408;2022-07-23T02:47:48;4.35;;;1.70;;
71763;SDS011;59602;52.142;5.408;2022-07-23T02:50:16;3.97;;;1.80;;
71763;SDS011;59602;52.142;5.408;2022-07-23T02:52:42;3.28;;;1.50;;
71763;SDS011;59602;52.142;5.408;2022-07-23T02:55:09;4.00;;;1.87;;
71763;SDS011;59602;52.142;5.408;2022-07-23T02:57:35;4.25;;;1.75;;
71763;SDS011;59602;52.142;5.408;2022-07-23T03:00:04;4.32;;;1.48;;
71763;SDS011;59602;52.142;5.408;2022-07-23T03:02:32;2.70;;;1.40;;
71763;SDS011;59602;52.142;5.408;2022-07-23T03:04:59;5.03;;;2.00;;
71763;SDS011;59602;52.142;5.408;2022-07-23T03:07:25;4.97;;;1.43;;
71763;SDS011;59602;52.142;5.408;2022-07-23T03:09:52;4.60;;;1.75;;
71763;SDS011;59602;52.142;5.408;2022-07-23T03:12:19;3.80;;;1.50;;
71763;SDS011;59602;52.142;5.408;2022-07-23T03:14:45;4.57;;;1.70;;
71763;SDS011;59602;52.142;5.408;2022-07-23T03:17:12;4.25;;;1.45;;
71763;SDS011;59602;52.142;5.408;2022-07-23T03:19:38;6.07;;;1.53;;
71763;SDS011;59602;52.142;5.408;2022-07-23T03:22:04;3.10;;;1.40;;
71763;SDS011;59602;52.142;5.408;2022-07-23T03:24:31;4.50;;;1.33;;
71763;SDS011;59602;52.142;5.408;2022-07-23T03:27:16;2.55;;;1.23;;
71763;SDS011;59602;52.142;5.408;2022-07-23T03:29:44;4.05;;;1.40;;
71763;SDS011;59602;52.142;5.408;2022-07-23T03:32:10;5.23;;;1.40;;
71763;SDS011;59602;52.142;5.408;2022-07-23T03:34:37;3.10;;;1.30;;
71763;SDS011;59602;52.142;5.408;2022-07-23T03:37:06;4.30;;;1.35;;
71763;SDS011;59602;52.142;5.408;2022-07-23T03:39:33;2.22;;;1.30;;
71763;SDS011;59602;52.142;5.408;2022-07-23T03:41:59;3.38;;;1.60;;
71763;SDS011;59602;52.142;5.408;2022-07-23T03:44:27;2.80;;;1.50;;
71763;SDS011;59602;52.142;5.408;2022-07-23T03:46:53;2.97;;;1.30;;
71763;SDS011;59602;52.142;5.408;2022-07-23T03:49:20;2.00;;;1.35;;
71763;SDS011;59602;52.142;5.408;2022-07-23T03:51:47;3.67;;;1.85;;
71763;SDS011;59602;52.142;5.408;2022-07-23T03:54:13;2.78;;;1.15;;
71763;SDS011;59602;52.142;5.408;2022-07-23T03:56:40;3.03;;;1.63;;
71763;SDS011;59602;52.142;5.408;2022-07-23T03:59:07;4.45;;;1.48;;
71763;SDS011;59602;52.142;5.408;2022-07-23T04:01:33;3.42;;;1.20;;
71763;SDS011;59602;52.142;5.408;2022-07-23T04:04:00;3.72;;;1.75;;
71763;SDS011;59602;52.142;5.408;2022-07-23T04:06:27;3.50;;;1.60;;
71763;SDS011;59602;52.142;5.408;2022-07-23T04:08:54;3.80;;;1.60;;
71763;SDS011;59602;52.142;5.408;2022-07-23T04:11:22;3.33;;;1.30;;
71763;SDS011;59602;52.142;5.408;2022-07-23T04:13:48;3.83;;;1.55;;
71763;SDS011;59602;52.142;5.408;2022-07-23T04:16:15;4.65;;;1.65;;
71763;SDS011;59602;52.142;5.408;2022-07-23T04:18:41;3.70;;;1.52;;
71763;SDS011;59602;52.142;5.408;2022-07-23T04:21:08;3.50;;;1.70;;
71763;SDS011;59602;52.142;5.408;2022-07-23T04:23:35;3.80;;;1.77;;
71763;SDS011;59602;52.142;5.408;2022-07-23T04:26:01;3.83;;;1.58;;
71763;SDS011;59602;52.142;5.408;2022-07-23T04:28:28;4.15;;;1.55;;
71763;SDS011;59602;52.142;5.408;2022-07-23T04:30:56;3.65;;;1.50;;
71763;SDS011;59602;52.142;5.408;2022-07-23T04:33:23;3.50;;;1.33;;
71763;SDS011;59602;52.142;5.408;2022-07-23T04:35:50;4.75;;;1.73;;
71763;SDS011;59602;52.142;5.408;2022-07-23T04:38:17;3.80;;;1.80;;
71763;SDS011;59602;52.142;5.408;2022-07-23T04:40:44;3.15;;;1.50;;
71763;SDS011;59602;52.142;5.408;2022-07-23T04:43:10;3.80;;;1.52;;
71763;SDS011;59602;52.142;5.408;2022-07-23T04:45:37;4.10;;;1.67;;
71763;SDS011;59602;52.142;5.408;2022-07-23T04:48:05;4.28;;;1.58;;
71763;SDS011;59602;52.142;5.408;2022-07-23T04:50:31;3.63;;;1.48;;
71763;SDS011;59602;52.142;5.408;2022-07-23T04:53:03;4.05;;;1.67;;
71763;SDS011;59602;52.142;5.408;2022-07-23T04:55:29;5.10;;;1.80;;
71763;SDS011;59602;52.142;5.408;2022-07-23T04:57:57;3.33;;;2.00;;
71763;SDS011;59602;52.142;5.408;2022-07-23T05:00:24;4.38;;;1.42;;
71763;SDS011;59602;52.142;5.408;2022-07-23T05:02:51;3.45;;;1.60;;
71763;SDS011;59602;52.142;5.408;2022-07-23T05:05:17;5.43;;;1.48;;
71763;SDS011;59602;52.142;5.408;2022-07-23T05:07:44;3.80;;;1.25;;
71763;SDS011;59602;52.142;5.408;2022-07-23T05:10:10;5.93;;;1.80;;
71763;SDS011;59602;52.142;5.408;2022-07-23T05:12:37;2.95;;;1.30;;
71763;SDS011;59602;52.142;5.408;2022-07-23T05:15:04;4.25;;;1.42;;
71763;SDS011;59602;52.142;5.408;2022-07-23T05:17:31;3.35;;;1.58;;
71763;SDS011;59602;52.142;5.408;2022-07-23T05:19:57;2.30;;;1.13;;
71763;SDS011;59602;52.142;5.408;2022-07-23T05:22:26;2.90;;;1.23;;
71763;SDS011;59602;52.142;5.408;2022-07-23T05:24:53;3.60;;;1.45;;
71763;SDS011;59602;52.142;5.408;2022-07-23T05:27:20;4.95;;;1.50;;
71763;SDS011;59602;52.142;5.408;2022-07-23T05:29:46;4.07;;;1.52;;
71763;SDS011;59602;52.142;5.408;2022-07-23T05:32:13;4.50;;;1.60;;
71763;SDS011;59602;52.142;5.408;2022-07-23T05:34:39;3.03;;;1.60;;
71763;SDS011;59602;52.142;5.408;2022-07-23T05:37:06;5.57;;;1.83;;
71763;SDS011;59602;52.142;5.408;2022-07-23T05:39:32;4.40;;;1.80;;
71763;SDS011;59602;52.142;5.408;2022-07-23T05:41:59;4.03;;;1.63;;
71763;SDS011;59602;52.142;5.408;2022-07-23T05:44:26;3.15;;;1.20;;
71763;SDS011;59602;52.142;5.408;2022-07-23T05:46:59;4.03;;;1.90;;
71763;SDS011;59602;52.142;5.408;2022-07-23T05:49:27;6.47;;;1.75;;
71763;SDS011;59602;52.142;5.408;2022-07-23T05:51:54;4.68;;;1.60;;
71763;SDS011;59602;52.142;5.408;2022-07-23T05:54:20;3.88;;;1.50;;
71763;SDS011;59602;52.142;5.408;2022-07-23T05:56:47;5.28;;;1.60;;
71763;SDS011;59602;52.142;5.408;2022-07-23T05:59:14;3.63;;;1.77;;
71763;SDS011;59602;52.142;5.408;2022-07-23T06:01:41;4.05;;;1.45;;
71763;SDS011;59602;52.142;5.408;2022-07-23T06:04:08;4.13;;;1.50;;
71763;SDS011;59602;52.142;5.408;2022-07-23T06:06:35;3.20;;;1.30;;
71763;SDS011;59602;52.142;5.408;2022-07-23T06:09:02;3.30;;;1.45;;
71763;SDS011;59602;52.142;5.408;2022-07-23T06:11:29;3.10;;;1.10;;
71763;SDS011;59602;52.142;5.408;2022-07-23T06:13:57;2.80;;;0.90;;
71763;SDS011;59602;52.142;5.408;2022-07-23T06:16:24;3.60;;;1.17;;
71763;SDS011;59602;52.142;5.408;2022-07-23T06:18:50;2.70;;;1.10;;
71763;SDS011;59602;52.142;5.408;2022-07-23T06:21:18;2.58;;;1.00;;
71763;SDS011;59602;52.142;5.408;2022-07-23T06:24:05;4.67;;;0.90;;
71763;SDS011;59602;52.142;5.408;2022-07-23T06:26:31;2.72;;;1.10;;
71763;SDS011;59602;52.142;5.408;2022-07-23T06:28:58;3.53;;;1.10;;
71763;SDS011;59602;52.142;5.408;2022-07-23T06:31:25;5.03;;;0.95;;
71763;SDS011;59602;52.142;5.408;2022-07-23T06:33:52;2.65;;;0.85;;
71763;SDS011;59602;52.142;5.408;2022-07-23T06:36:18;4.47;;;1.23;;
71763;SDS011;59602;52.142;5.408;2022-07-23T06:38:45;4.30;;;1.15;;
71763;SDS011;59602;52.142;5.408;2022-07-23T06:41:13;2.95;;;0.88;;
71763;SDS011;59602;52.142;5.408;2022-07-23T06:43:40;4.85;;;1.00;;
71763;SDS011;59602;52.142;5.408;2022-07-23T06:46:07;3.25;;;0.95;;
71763;SDS011;59602;52.142;5.408;2022-07-23T06:48:33;4.07;;;1.00;;
71763;SDS011;59602;52.142;5.408;2022-07-23T06:51:02;3.28;;;0.93;;
71763;SDS011;59602;52.142;5.408;2022-07-23T06:53:29;2.85;;;0.80;;
71763;SDS011;59602;52.142;5.408;2022-07-23T06:55:56;1.80;;;0.50;;
71763;SDS011;59602;52.142;5.408;2022-07-23T06:58:22;3.75;;;0.50;;
71763;SDS011;59602;52.142;5.408;2022-07-23T07:00:49;2.97;;;0.40;;
71763;SDS011;59602;52.142;5.408;2022-07-23T07:03:16;3.08;;;0.40;;
71763;SDS011;59602;52.142;5.408;2022-07-23T07:05:45;2.92;;;0.52;;
71763;SDS011;59602;52.142;5.408;2022-07-23T07:08:19;2.05;;;0.45;;
71763;SDS011;59602;52.142;5.408;2022-07-23T07:11:04;1.85;;;0.60;;
71763;SDS011;59602;52.142;5.408;2022-07-23T07:13:31;2.40;;;0.37;;
71763;SDS011;59602;52.142;5.408;2022-07-23T07:15:58;1.77;;;0.30;;
71763;SDS011;59602;52.142;5.408;2022-07-23T07:18:26;1.50;;;0.30;;
71763;SDS011;59602;52.142;5.408;2022-07-23T07:20:52;1.40;;;0.40;;
71763;SDS011;59602;52.142;5.408;2022-07-23T07:23:22;2.50;;;0.52;;
71763;SDS011;59602;52.142;5.408;2022-07-23T07:25:48;2.60;;;0.43;;
71763;SDS011;59602;52.142;5.408;2022-07-23T07:28:15;4.30;;;0.55;;
71763;SDS011;59602;52.142;5.408;2022-07-23T07:30:41;3.08;;;0.50;;
71763;SDS011;59602;52.142;5.408;2022-07-23T07:33:08;3.00;;;0.55;;
71763;SDS011;59602;52.142;5.408;2022-07-23T07:35:35;2.30;;;0.40;;
71763;SDS011;59602;52.142;5.408;2022-07-23T07:41:00;1.83;;;0.40;;
71763;SDS011;59602;52.142;5.408;2022-07-23T07:43:28;3.33;;;0.68;;
71763;SDS011;59602;52.142;5.408;2022-07-23T07:45:55;3.65;;;0.55;;
71763;SDS011;59602;52.142;5.408;2022-07-23T07:48:22;2.35;;;0.30;;
71763;SDS011;59602;52.142;5.408;2022-07-23T07:50:49;2.50;;;0.60;;
71763;SDS011;59602;52.142;5.408;2022-07-23T07:53:15;1.35;;;0.40;;
71763;SDS011;59602;52.142;5.408;2022-07-23T07:55:42;1.20;;;0.60;;
71763;SDS011;59602;52.142;5.408;2022-07-23T07:58:16;3.95;;;0.85;;
71763;SDS011;59602;52.142;5.408;2022-07-23T08:00:43;1.55;;;0.55;;
71763;SDS011;59602;52.142;5.408;2022-07-23T08:03:10;2.30;;;0.57;;
71763;SDS011;59602;52.142;5.408;2022-07-23T08:05:54;2.50;;;0.60;;
71763;SDS011;59602;52.142;5.408;2022-07-23T08:08:21;1.58;;;0.35;;
71763;SDS011;59602;52.142;5.408;2022-07-23T08:10:47;1.63;;;0.50;;
71763;SDS011;59602;52.142;5.408;2022-07-23T08:13:14;1.90;;;0.70;;
71763;SDS011;59602;52.142;5.408;2022-07-23T08:15:58;1.47;;;0.40;;
71763;SDS011;59602;52.142;5.408;2022-07-23T08:18:28;2.97;;;0.70;;
71763;SDS011;59602;52.142;5.408;2022-07-23T08:20:58;2.25;;;0.50;;
71763;SDS011;59602;52.142;5.408;2022-07-23T08:23:26;1.35;;;0.32;;
71763;SDS011;59602;52.142;5.408;2022-07-23T08:25:55;2.42;;;0.73;;
71763;SDS011;59602;52.142;5.408;2022-07-23T08:28:24;2.47;;;0.70;;
71763;SDS011;59602;52.142;5.408;2022-07-23T08:30:50;2.80;;;0.30;;
71763;SDS011;59602;52.142;5.408;2022-07-23T08:33:17;1.77;;;0.40;;
71763;SDS011;59602;52.142;5.408;2022-07-23T08:35:59;3.13;;;0.40;;
71763;SDS011;59602;52.142;5.408;2022-07-23T08:38:27;2.22;;;0.32;;
71763;SDS011;59602;52.142;5.408;2022-07-23T08:41:28;1.83;;;0.60;;
71763;SDS011;59602;52.142;5.408;2022-07-23T08:43:49;2.17;;;0.32;;
71763;SDS011;59602;52.142;5.408;2022-07-23T08:46:17;0.95;;;0.40;;
71763;SDS011;59602;52.142;5.408;2022-07-23T08:48:49;1.13;;;0.40;;
71763;SDS011;59602;52.142;5.408;2022-07-23T08:54:03;1.73;;;0.30;;
71763;SDS011;59602;52.142;5.408;2022-07-23T08:56:31;2.15;;;0.43;;
71763;SDS011;59602;52.142;5.408;2022-07-23T08:58:58;1.30;;;0.65;;
71763;SDS011;59602;52.142;5.408;2022-07-23T09:01:25;1.65;;;0.40;;
71763;SDS011;59602;52.142;5.408;2022-07-23T09:03:52;1.67;;;0.40;;
71763;SDS011;59602;52.142;5.408;2022-07-23T09:06:20;2.10;;;0.50;;
71763;SDS011;59602;52.142;5.408;2022-07-23T09:08:47;1.67;;;0.40;;
71763;SDS011;59602;52.142;5.408;2022-07-23T09:11:15;0.90;;;0.30;;
71763;SDS011;59602;52.142;5.408;2022-07-23T09:13:46;0.70;;;0.30;;
71763;SDS011;59602;52.142;5.408;2022-07-23T09:16:17;1.27;;;0.30;;
71763;SDS011;59602;52.142;5.408;2022-07-23T09:21:27;3.25;;;0.40;;
71763;SDS011;59602;52.142;5.408;2022-07-23T09:23:59;2.38;;;0.40;;
71763;SDS011;59602;52.142;5.408;2022-07-23T09:26:38;1.02;;;0.40;;
71763;SDS011;59602;52.142;5.408;2022-07-23T09:29:10;1.90;;;0.38;;
71763;SDS011;59602;52.142;5.408;2022-07-23T09:31:49;1.80;;;0.40;;
71763;SDS011;59602;52.142;5.408;2022-07-23T09:34:28;1.48;;;0.40;;
71763;SDS011;59602;52.142;5.408;2022-07-23T09:40:03;1.40;;;0.40;;
71763;SDS011;59602;52.142;5.408;2022-07-23T09:42:38;1.58;;;0.30;;
71763;SDS011;59602;52.142;5.408;2022-07-23T09:45:06;1.03;;;0.30;;
71763;SDS011;59602;52.142;5.408;2022-07-23T09:48:21;1.85;;;0.50;;
71763;SDS011;59602;52.142;5.408;2022-07-23T09:50:50;1.10;;;0.30;;
71763;SDS011;59602;52.142;5.408;2022-07-23T09:53:42;2.88;;;0.40;;
71763;SDS011;59602;52.142;5.408;2022-07-23T09:56:08;5.28;;;0.60;;
71763;SDS011;59602;52.142;5.408;2022-07-23T09:58:39;1.63;;;0.47;;
71763;SDS011;59602;52.142;5.408;2022-07-23T10:01:14;2.83;;;0.40;;
71763;SDS011;59602;52.142;5.408;2022-07-23T10:03:46;1.55;;;0.40;;
71763;SDS011;59602;52.142;5.408;2022-07-23T10:06:12;1.27;;;0.32;;
71763;SDS011;59602;52.142;5.408;2022-07-23T10:08:41;0.90;;;0.40;;
71763;SDS011;59602;52.142;5.408;2022-07-23T10:11:21;2.77;;;0.50;;
71763;SDS011;59602;52.142;5.408;2022-07-23T10:13:49;1.38;;;0.30;;
71763;SDS011;59602;52.142;5.408;2022-07-23T10:16:18;1.73;;;0.40;;
71763;SDS011;59602;52.142;5.408;2022-07-23T10:18:52;1.48;;;0.40;;
71763;SDS011;59602;52.142;5.408;2022-07-23T10:21:24;3.03;;;0.52;;
71763;SDS011;59602;52.142;5.408;2022-07-23T10:24:49;1.63;;;0.40;;
71763;SDS011;59602;52.142;5.408;2022-07-23T10:30:16;1.67;;;0.40;;
71763;SDS011;59602;52.142;5.408;2022-07-23T10:35:46;3.40;;;0.50;;
71763;SDS011;59602;52.142;5.408;2022-07-23T10:38:22;1.57;;;0.40;;
71763;SDS011;59602;52.142;5.408;2022-07-23T10:40:54;1.65;;;0.40;;
71763;SDS011;59602;52.142;5.408;2022-07-23T10:43:24;1.33;;;0.40;;
71763;SDS011;59602;52.142;5.408;2022-07-23T10:45:54;1.42;;;0.55;;
71763;SDS011;59602;52.142;5.408;2022-07-23T10:48:25;1.98;;;0.50;;
71763;SDS011;59602;52.142;5.408;2022-07-23T10:51:07;2.43;;;0.50;;
71763;SDS011;59602;52.142;5.408;2022-07-23T10:56:48;1.30;;;0.40;;
71763;SDS011;59602;52.142;5.408;2022-07-23T11:02:32;1.17;;;0.50;;
71763;SDS011;59602;52.142;5.408;2022-07-23T11:05:04;1.30;;;0.50;;
71763;SDS011;59602;52.142;5.408;2022-07-23T11:07:34;1.30;;;0.55;;
71763;SDS011;59602;52.142;5.408;2022-07-23T11:10:04;1.83;;;0.50;;
71763;SDS011;59602;52.142;5.408;2022-07-23T11:13:01;2.97;;;0.77;;
71763;SDS011;59602;52.142;5.408;2022-07-23T11:26:48;1.58;;;0.50;;
71763;SDS011;59602;52.142;5.408;2022-07-23T11:31:52;2.90;;;0.60;;
71763;SDS011;59602;52.142;5.408;2022-07-23T11:36:56;1.80;;;0.70;;
71763;SDS011;59602;52.142;5.408;2022-07-23T11:39:24;1.05;;;0.40;;
71763;SDS011;59602;52.142;5.408;2022-07-23T11:41:52;1.55;;;0.57;;
71763;SDS011;59602;52.142;5.408;2022-07-23T11:46:58;3.20;;;0.50;;
71763;SDS011;59602;52.142;5.408;2022-07-23T11:49:26;2.33;;;0.70;;
71763;SDS011;59602;52.142;5.408;2022-07-23T11:54:32;3.05;;;0.85;;
71763;SDS011;59602;52.142;5.408;2022-07-23T11:57:05;1.57;;;0.70;;
71763;SDS011;59602;52.142;5.408;2022-07-23T11:59:33;2.78;;;0.75;;
71763;SDS011;59602;52.142;5.408;2022-07-23T12:02:03;2.45;;;0.60;;
71763;SDS011;59602;52.142;5.408;2022-07-23T12:04:42;1.88;;;0.60;;
71763;SDS011;59602;52.142;5.408;2022-07-23T12:10:03;3.63;;;0.80;;
71763;SDS011;59602;52.142;5.408;2022-07-23T12:12:36;1.75;;;0.90;;
71763;SDS011;59602;52.142;5.408;2022-07-23T12:15:05;3.40;;;0.60;;
71763;SDS011;59602;52.142;5.408;2022-07-23T12:17:33;2.75;;;0.90;;
71763;SDS011;59602;52.142;5.408;2022-07-23T12:20:03;2.38;;;0.95;;
71763;SDS011;59602;52.142;5.408;2022-07-23T12:22:34;3.07;;;0.80;;
71763;SDS011;59602;52.142;5.408;2022-07-23T12:27:38;2.55;;;0.90;;
71763;SDS011;59602;52.142;5.408;2022-07-23T12:30:18;2.15;;;0.60;;
71763;SDS011;59602;52.142;5.408;2022-07-23T12:32:48;1.95;;;0.80;;
71763;SDS011;59602;52.142;5.408;2022-07-23T12:35:16;2.00;;;0.70;;
71763;SDS011;59602;52.142;5.408;2022-07-23T12:37:45;2.08;;;0.50;;
71763;SDS011;59602;52.142;5.408;2022-07-23T12:40:23;2.88;;;0.80;;
71763;SDS011;59602;52.142;5.408;2022-07-23T12:42:54;3.22;;;0.75;;
71763;SDS011;59602;52.142;5.408;2022-07-23T12:45:22;2.15;;;0.60;;
71763;SDS011;59602;52.142;5.408;2022-07-23T12:47:51;2.17;;;0.80;;
71763;SDS011;59602;52.142;5.408;2022-07-23T12:50:31;3.20;;;0.70;;
71763;SDS011;59602;52.142;5.408;2022-07-23T12:53:09;2.17;;;0.80;;
71763;SDS011;59602;52.142;5.408;2022-07-23T12:55:49;2.42;;;0.80;;
71763;SDS011;59602;52.142;5.408;2022-07-23T12:58:40;2.42;;;0.63;;
71763;SDS011;59602;52.142;5.408;2022-07-23T13:06:24;1.77;;;0.70;;
71763;SDS011;59602;52.142;5.408;2022-07-23T13:08:51;2.92;;;0.60;;
71763;SDS011;59602;52.142;5.408;2022-07-23T13:11:18;3.22;;;0.73;;
71763;SDS011;59602;52.142;5.408;2022-07-23T13:13:45;3.27;;;1.00;;
71763;SDS011;59602;52.142;5.408;2022-07-23T13:16:11;2.53;;;1.13;;
71763;SDS011;59602;52.142;5.408;2022-07-23T13:18:38;7.10;;;0.90;;
71763;SDS011;59602;52.142;5.408;2022-07-23T13:21:06;4.00;;;0.70;;
71763;SDS011;59602;52.142;5.408;2022-07-23T13:23:34;2.28;;;0.70;;
71763;SDS011;59602;52.142;5.408;2022-07-23T13:26:02;1.47;;;0.70;;
71763;SDS011;59602;52.142;5.408;2022-07-23T13:28:29;2.45;;;0.90;;
71763;SDS011;59602;52.142;5.408;2022-07-23T13:30:57;2.97;;;1.00;;
71763;SDS011;59602;52.142;5.408;2022-07-23T13:33:24;2.35;;;1.10;;
71763;SDS011;59602;52.142;5.408;2022-07-23T13:35:52;3.90;;;0.88;;
71763;SDS011;59602;52.142;5.408;2022-07-23T13:38:21;1.80;;;0.83;;
71763;SDS011;59602;52.142;5.408;2022-07-23T13:40:49;2.10;;;0.80;;
71763;SDS011;59602;52.142;5.408;2022-07-23T13:43:19;1.75;;;1.00;;
71763;SDS011;59602;52.142;5.408;2022-07-23T13:45:48;1.80;;;1.05;;
71763;SDS011;59602;52.142;5.408;2022-07-23T13:48:18;2.63;;;0.95;;
71763;SDS011;59602;52.142;5.408;2022-07-23T13:50:46;2.57;;;1.00;;
71763;SDS011;59602;52.142;5.408;2022-07-23T13:53:15;1.92;;;1.10;;
71763;SDS011;59602;52.142;5.408;2022-07-23T13:55:44;1.25;;;0.70;;
71763;SDS011;59602;52.142;5.408;2022-07-23T13:58:14;2.72;;;0.93;;
71763;SDS011;59602;52.142;5.408;2022-07-23T14:00:43;2.67;;;0.80;;
71763;SDS011;59602;52.142;5.408;2022-07-23T14:03:19;5.10;;;1.10;;
71763;SDS011;59602;52.142;5.408;2022-07-23T14:05:49;2.45;;;0.80;;
71763;SDS011;59602;52.142;5.408;2022-07-23T14:08:17;2.80;;;0.70;;
71763;SDS011;59602;52.142;5.408;2022-07-23T14:10:47;1.65;;;0.90;;
71763;SDS011;59602;52.142;5.408;2022-07-23T14:13:15;1.10;;;0.60;;
71763;SDS011;59602;52.142;5.408;2022-07-23T14:15:42;3.00;;;1.20;;
71763;SDS011;59602;52.142;5.408;2022-07-23T14:18:08;1.92;;;0.80;;
71763;SDS011;59602;52.142;5.408;2022-07-23T14:20:35;2.38;;;0.95;;
71763;SDS011;59602;52.142;5.408;2022-07-23T14:23:03;2.33;;;0.80;;
71763;SDS011;59602;52.142;5.408;2022-07-23T14:25:32;1.95;;;0.70;;
71763;SDS011;59602;52.142;5.408;2022-07-23T14:27:59;1.80;;;0.70;;
71763;SDS011;59602;52.142;5.408;2022-07-23T14:30:26;2.03;;;0.98;;
71763;SDS011;59602;52.142;5.408;2022-07-23T14:32:59;2.70;;;0.80;;
71763;SDS011;59602;52.142;5.408;2022-07-23T14:35:26;1.85;;;1.00;;
71763;SDS011;59602;52.142;5.408;2022-07-23T14:37:54;1.77;;;0.80;;
71763;SDS011;59602;52.142;5.408;2022-07-23T14:40:23;2.43;;;0.90;;
71763;SDS011;59602;52.142;5.408;2022-07-23T14:42:56;4.57;;;1.10;;
71763;SDS011;59602;52.142;5.408;2022-07-23T14:45:23;3.15;;;1.02;;
71763;SDS011;59602;52.142;5.408;2022-07-23T14:47:53;2.30;;;0.85;;
71763;SDS011;59602;52.142;5.408;2022-07-23T14:50:19;1.83;;;0.95;;
71763;SDS011;59602;52.142;5.408;2022-07-23T14:52:46;2.17;;;0.80;;
71763;SDS011;59602;52.142;5.408;2022-07-23T14:55:14;1.60;;;0.80;;
71763;SDS011;59602;52.142;5.408;2022-07-23T14:57:44;1.30;;;0.70;;
71763;SDS011;59602;52.142;5.408;2022-07-23T15:00:11;3.40;;;0.90;;
71763;SDS011;59602;52.142;5.408;2022-07-23T15:02:40;1.85;;;0.90;;
71763;SDS011;59602;52.142;5.408;2022-07-23T15:05:07;1.70;;;0.70;;
71763;SDS011;59602;52.142;5.408;2022-07-23T15:07:34;3.80;;;1.27;;
71763;SDS011;59602;52.142;5.408;2022-07-23T15:10:01;1.92;;;0.80;;
71763;SDS011;59602;52.142;5.408;2022-07-23T15:12:46;2.22;;;1.00;;
71763;SDS011;59602;52.142;5.408;2022-07-23T15:15:14;3.20;;;0.80;;
71763;SDS011;59602;52.142;5.408;2022-07-23T15:18:22;3.43;;;0.80;;
71763;SDS011;59602;52.142;5.408;2022-07-23T15:20:50;1.85;;;0.80;;
71763;SDS011;59602;52.142;5.408;2022-07-23T15:34:29;2.67;;;0.88;;
71763;SDS011;59602;52.142;5.408;2022-07-23T15:36:59;1.38;;;0.80;;
71763;SDS011;59602;52.142;5.408;2022-07-23T15:39:27;2.85;;;0.80;;
71763;SDS011;59602;52.142;5.408;2022-07-23T15:47:31;2.20;;;1.05;;
71763;SDS011;59602;52.142;5.408;2022-07-23T15:49:57;1.80;;;0.80;;
71763;SDS011;59602;52.142;5.408;2022-07-23T15:57:53;2.57;;;1.00;;
71763;SDS011;59602;52.142;5.408;2022-07-23T16:00:20;2.63;;;1.20;;
71763;SDS011;59602;52.142;5.408;2022-07-23T16:02:47;2.72;;;1.05;;
71763;SDS011;59602;52.142;5.408;2022-07-23T16:05:13;2.85;;;1.17;;
71763;SDS011;59602;52.142;5.408;2022-07-23T16:10:35;9.10;;;4.20;;
71763;SDS011;59602;52.142;5.408;2022-07-23T16:13:02;3.10;;;1.20;;
71763;SDS011;59602;52.142;5.408;2022-07-23T16:15:30;2.95;;;1.20;;
71763;SDS011;59602;52.142;5.408;2022-07-23T16:17:58;1.67;;;1.20;;
71763;SDS011;59602;52.142;5.408;2022-07-23T16:20:28;1.70;;;1.08;;